sensor_id;sensor_type;location;lat;lon;timestamp;P1;durP1;ratioP1;P2;durP2;ratioP2
10440;SDS011;5268;49.346;9.522;2022-12-07T04:20:39;9.70;;;6.95;;
10440;SDS011;5268;49.346;9.522;2022-12-07T04:25:41;10.95;;;8.18;;
10440;SDS011;5268;49.346;9.522;2022-12-07T04:30:43;11.18;;;8.73;;
10440;SDS011;5268;49.346;9.522;2022-12-07T04:35:48;15.73;;;10.70;;
10440;SDS011;5268;49.346;9.522;2022-12-07T04:40:50;13.57;;;9.60;;
10440;SDS011;5268;49.346;9.522;2022-12-07T04:45:52;13.50;;;10.23;;
10440;SDS011;5268;49.346;9.522;2022-12-07T04:50:55;12.60;;;8.95;;
10440;SDS011;5268;49.346;9.522;2022-12-07T04:55:58;13.65;;;9.18;;
10440;SDS011;5268;49.346;9.522;2022-12-07T05:01:01;12.60;;;9.32;;
10440;SDS011;5268;49.346;9.522;2022-12-07T05:06:05;12.40;;;9.00;;
10440;SDS011;5268;49.346;9.522;2022-12-07T05:11:10;13.18;;;9.88;;
10440;SDS011;5268;49.346;9.522;2022-12-07T05:16:34;14.18;;;9.45;;
10440;SDS011;5268;49.346;9.522;2022-12-07T05:21:38;11.55;;;8.63;;
10440;SDS011;5268;49.346;9.522;2022-12-07T05:26:40;12.05;;;9.00;;
10440;SDS011;5268;49.346;9.522;2022-12-07T05:31:44;13.63;;;9.80;;
10440;SDS011;5268;49.346;9.522;2022-12-07T05:36:48;17.58;;;12.07;;
10440;SDS011;5268;49.346;9.522;2022-12-07T05:41:50;15.68;;;11.10;;
10440;SDS011;5268;49.346;9.522;2022-12-07T05:47:09;13.45;;;10.55;;
10440;SDS011;5268;49.346;9.522;2022-12-07T05:52:14;10.60;;;8.57;;
10440;SDS011;5268;49.346;9.522;2022-12-07T05:57:17;11.00;;;8.82;;
10440;SDS011;5268;49.346;9.522;2022-12-07T06:02:20;13.15;;;9.48;;
10440;SDS011;5268;49.346;9.522;2022-12-07T06:07:24;13.02;;;9.07;;
10440;SDS011;5268;49.346;9.522;2022-12-07T06:12:26;12.15;;;9.05;;
10440;SDS011;5268;49.346;9.522;2022-12-07T06:17:39;11.65;;;8.95;;
10440;SDS011;5268;49.346;9.522;2022-12-07T06:22:43;13.45;;;8.88;;
10440;SDS011;5268;49.346;9.522;2022-12-07T06:27:45;11.60;;;9.05;;
10440;SDS011;5268;49.346;9.522;2022-12-07T06:32:47;11.45;;;8.50;;
10440;SDS011;5268;49.346;9.522;2022-12-07T06:37:50;13.82;;;9.25;;
10440;SDS011;5268;49.346;9.522;2022-12-07T06:42:52;13.60;;;9.10;;
10440;SDS011;5268;49.346;9.522;2022-12-07T06:47:54;13.85;;;9.20;;
10440;SDS011;5268;49.346;9.522;2022-12-07T06:52:58;13.02;;;10.60;;
10440;SDS011;5268;49.346;9.522;2022-12-07T06:58:00;13.07;;;10.55;;
10440;SDS011;5268;49.346;9.522;2022-12-07T07:03:02;12.88;;;9.70;;
10440;SDS011;5268;49.346;9.522;2022-12-07T07:08:06;12.20;;;9.73;;
10440;SDS011;5268;49.346;9.522;2022-12-07T07:13:08;11.15;;;8.43;;
10440;SDS011;5268;49.346;9.522;2022-12-07T07:18:10;13.70;;;10.88;;
10440;SDS011;5268;49.346;9.522;2022-12-07T07:23:14;13.32;;;11.00;;
10440;SDS011;5268;49.346;9.522;2022-12-07T07:28:16;13.95;;;9.70;;
10440;SDS011;5268;49.346;9.522;2022-12-07T07:33:19;12.35;;;9.88;;
10440;SDS011;5268;49.346;9.522;2022-12-07T07:38:22;11.93;;;9.63;;
10440;SDS011;5268;49.346;9.522;2022-12-07T07:43:25;13.02;;;9.85;;
10440;SDS011;5268;49.346;9.522;2022-12-07T07:48:27;10.85;;;9.18;;
10440;SDS011;5268;49.346;9.522;2022-12-07T07:53:30;12.07;;;8.68;;
10440;SDS011;5268;49.346;9.522;2022-12-07T07:58:32;11.15;;;8.02;;
10440;SDS011;5268;49.346;9.522;2022-12-07T08:03:34;11.07;;;9.50;;
10440;SDS011;5268;49.346;9.522;2022-12-07T08:08:44;11.00;;;8.30;;
10440;SDS011;5268;49.346;9.522;2022-12-07T08:13:46;11.48;;;8.98;;
10440;SDS011;5268;49.346;9.522;2022-12-07T08:18:49;9.75;;;7.93;;
10440;SDS011;5268;49.346;9.522;2022-12-07T08:23:54;11.90;;;9.30;;
10440;SDS011;5268;49.346;9.522;2022-12-07T08:28:58;14.80;;;11.40;;
10440;SDS011;5268;49.346;9.522;2022-12-07T08:34:00;13.43;;;9.55;;
10440;SDS011;5268;49.346;9.522;2022-12-07T08:39:05;10.75;;;7.72;;
10440;SDS011;5268;49.346;9.522;2022-12-07T08:44:09;10.15;;;8.20;;
10440;SDS011;5268;49.346;9.522;2022-12-07T08:49:11;11.68;;;9.05;;
10440;SDS011;5268;49.346;9.522;2022-12-07T08:54:18;11.77;;;8.20;;
10440;SDS011;5268;49.346;9.522;2022-12-07T08:59:21;10.95;;;8.30;;
10440;SDS011;5268;49.346;9.522;2022-12-07T09:04:23;10.38;;;7.50;;
10440;SDS011;5268;49.346;9.522;2022-12-07T09:09:26;10.05;;;7.43;;
10440;SDS011;5268;49.346;9.522;2022-12-07T09:14:29;10.20;;;7.60;;
10440;SDS011;5268;49.346;9.522;2022-12-07T09:19:31;9.70;;;7.75;;
10440;SDS011;5268;49.346;9.522;2022-12-07T09:24:34;11.75;;;8.32;;
10440;SDS011;5268;49.346;9.522;2022-12-07T09:29:36;11.07;;;7.35;;
10440;SDS011;5268;49.346;9.522;2022-12-07T09:34:38;12.02;;;7.90;;
10440;SDS011;5268;49.346;9.522;2022-12-07T09:39:42;10.35;;;7.00;;
10440;SDS011;5268;49.346;9.522;2022-12-07T09:44:44;10.68;;;7.25;;
10440;SDS011;5268;49.346;9.522;2022-12-07T09:49:46;9.90;;;8.07;;
10440;SDS011;5268;49.346;9.522;2022-12-07T09:54:50;10.18;;;7.60;;
10440;SDS011;5268;49.346;9.522;2022-12-07T09:59:53;10.93;;;8.55;;
10440;SDS011;5268;49.346;9.522;2022-12-07T10:04:56;11.60;;;8.30;;
10440;SDS011;5268;49.346;9.522;2022-12-07T10:10:03;11.60;;;8.63;;
10440;SDS011;5268;49.346;9.522;2022-12-07T10:15:08;10.75;;;8.15;;
10440;SDS011;5268;49.346;9.522;2022-12-07T10:20:14;11.73;;;9.07;;
10440;SDS011;5268;49.346;9.522;2022-12-07T10:25:20;12.30;;;9.02;;
10440;SDS011;5268;49.346;9.522;2022-12-07T10:30:24;17.17;;;12.05;;
10440;SDS011;5268;49.346;9.522;2022-12-07T10:35:26;16.88;;;12.77;;
10440;SDS011;5268;49.346;9.522;2022-12-07T10:40:32;14.30;;;11.25;;
10440;SDS011;5268;49.346;9.522;2022-12-07T10:45:37;14.55;;;11.95;;
10440;SDS011;5268;49.346;9.522;2022-12-07T10:50:58;15.75;;;12.50;;
10440;SDS011;5268;49.346;9.522;2022-12-07T10:56:16;12.52;;;9.88;;
10440;SDS011;5268;49.346;9.522;2022-12-07T11:01:36;13.20;;;10.27;;
10440;SDS011;5268;49.346;9.522;2022-12-07T11:06:49;12.10;;;9.00;;
10440;SDS011;5268;49.346;9.522;2022-12-07T11:11:59;11.63;;;8.68;;
10440;SDS011;5268;49.346;9.522;2022-12-07T11:17:12;11.00;;;8.73;;
10440;SDS011;5268;49.346;9.522;2022-12-07T11:22:20;13.48;;;10.73;;
10440;SDS011;5268;49.346;9.522;2022-12-07T11:27:34;13.15;;;10.05;;
10440;SDS011;5268;49.346;9.522;2022-12-07T11:32:47;13.95;;;9.70;;
10440;SDS011;5268;49.346;9.522;2022-12-07T11:38:08;11.88;;;9.52;;
10440;SDS011;5268;49.346;9.522;2022-12-07T11:43:18;11.55;;;9.10;;
10440;SDS011;5268;49.346;9.522;2022-12-07T11:48:24;12.50;;;8.88;;
10440;SDS011;5268;49.346;9.522;2022-12-07T11:53:35;11.30;;;9.00;;
10440;SDS011;5268;49.346;9.522;2022-12-07T11:58:53;12.85;;;9.10;;
10440;SDS011;5268;49.346;9.522;2022-12-07T12:04:01;14.60;;;9.82;;
10440;SDS011;5268;49.346;9.522;2022-12-07T12:09:11;14.10;;;10.63;;
10440;SDS011;5268;49.346;9.522;2022-12-07T12:19:42;13.82;;;9.77;;
10440;SDS011;5268;49.346;9.522;2022-12-07T12:24:58;14.90;;;10.32;;
10440;SDS011;5268;49.346;9.522;2022-12-07T12:30:06;12.10;;;8.88;;
10440;SDS011;5268;49.346;9.522;2022-12-07T12:35:30;11.25;;;8.55;;
10440;SDS011;5268;49.346;9.522;2022-12-07T12:40:38;10.93;;;8.60;;
10440;SDS011;5268;49.346;9.522;2022-12-07T12:45:48;9.73;;;7.65;;
10440;SDS011;5268;49.346;9.522;2022-12-07T12:50:50;11.63;;;8.02;;
10440;SDS011;5268;49.346;9.522;2022-12-07T12:56:38;12.73;;;9.05;;
10440;SDS011;5268;49.346;9.522;2022-12-07T13:01:45;11.35;;;8.57;;
10440;SDS011;5268;49.346;9.522;2022-12-07T13:06:48;11.02;;;8.82;;
10440;SDS011;5268;49.346;9.522;2022-12-07T13:11:55;12.70;;;9.00;;
10440;SDS011;5268;49.346;9.522;2022-12-07T13:17:04;12.93;;;8.13;;
10440;SDS011;5268;49.346;9.522;2022-12-07T13:27:50;14.88;;;8.60;;
10440;SDS011;5268;49.346;9.522;2022-12-07T13:32:58;11.15;;;8.80;;
10440;SDS011;5268;49.346;9.522;2022-12-07T13:38:02;12.18;;;8.15;;
10440;SDS011;5268;49.346;9.522;2022-12-07T13:43:12;11.82;;;9.80;;
10440;SDS011;5268;49.346;9.522;2022-12-07T13:48:20;11.27;;;8.38;;
10440;SDS011;5268;49.346;9.522;2022-12-07T13:53:29;9.48;;;7.70;;
10440;SDS011;5268;49.346;9.522;2022-12-07T13:58:32;9.90;;;8.07;;
10440;SDS011;5268;49.346;9.522;2022-12-07T14:03:37;9.52;;;7.90;;
10440;SDS011;5268;49.346;9.522;2022-12-07T14:08:40;10.00;;;8.43;;
10440;SDS011;5268;49.346;9.522;2022-12-07T14:13:45;11.23;;;10.00;;
10440;SDS011;5268;49.346;9.522;2022-12-07T14:18:58;12.95;;;9.93;;
10440;SDS011;5268;49.346;9.522;2022-12-07T14:24:11;10.38;;;7.78;;
10440;SDS011;5268;49.346;9.522;2022-12-07T14:29:21;10.05;;;7.38;;
10440;SDS011;5268;49.346;9.522;2022-12-07T14:34:34;10.82;;;8.55;;
10440;SDS011;5268;49.346;9.522;2022-12-07T14:39:36;13.20;;;7.50;;
10440;SDS011;5268;49.346;9.522;2022-12-07T14:44:38;10.38;;;7.47;;
10440;SDS011;5268;49.346;9.522;2022-12-07T14:49:42;10.10;;;7.70;;
10440;SDS011;5268;49.346;9.522;2022-12-07T14:54:46;10.80;;;8.05;;
10440;SDS011;5268;49.346;9.522;2022-12-07T14:59:48;11.38;;;7.30;;
10440;SDS011;5268;49.346;9.522;2022-12-07T15:04:52;10.65;;;7.95;;
10440;SDS011;5268;49.346;9.522;2022-12-07T15:09:54;9.35;;;7.20;;
10440;SDS011;5268;49.346;9.522;2022-12-07T15:15:03;10.68;;;8.40;;
10440;SDS011;5268;49.346;9.522;2022-12-07T15:20:13;10.68;;;7.80;;
10440;SDS011;5268;49.346;9.522;2022-12-07T15:25:16;15.45;;;12.32;;
10440;SDS011;5268;49.346;9.522;2022-12-07T15:30:19;12.50;;;9.55;;
10440;SDS011;5268;49.346;9.522;2022-12-07T15:35:22;10.30;;;8.00;;
10440;SDS011;5268;49.346;9.522;2022-12-07T15:40:25;12.98;;;9.43;;
10440;SDS011;5268;49.346;9.522;2022-12-07T15:45:29;11.32;;;8.20;;
10440;SDS011;5268;49.346;9.522;2022-12-07T15:50:37;13.27;;;10.38;;
10440;SDS011;5268;49.346;9.522;2022-12-07T15:55:40;12.82;;;9.82;;
10440;SDS011;5268;49.346;9.522;2022-12-07T16:00:42;10.38;;;7.90;;
10440;SDS011;5268;49.346;9.522;2022-12-07T16:05:52;11.02;;;8.23;;
10440;SDS011;5268;49.346;9.522;2022-12-07T16:10:54;11.27;;;8.25;;
10440;SDS011;5268;49.346;9.522;2022-12-07T16:15:57;11.55;;;7.88;;
10440;SDS011;5268;49.346;9.522;2022-12-07T16:21:01;9.77;;;7.90;;
10440;SDS011;5268;49.346;9.522;2022-12-07T16:26:04;11.88;;;9.10;;
10440;SDS011;5268;49.346;9.522;2022-12-07T16:31:16;12.82;;;10.60;;
10440;SDS011;5268;49.346;9.522;2022-12-07T16:36:29;13.13;;;10.48;;
10440;SDS011;5268;49.346;9.522;2022-12-07T16:41:35;14.57;;;10.57;;
10440;SDS011;5268;49.346;9.522;2022-12-07T16:46:37;14.93;;;10.95;;
10440;SDS011;5268;49.346;9.522;2022-12-07T16:51:41;17.38;;;11.98;;
10440;SDS011;5268;49.346;9.522;2022-12-07T16:56:43;14.60;;;10.10;;
10440;SDS011;5268;49.346;9.522;2022-12-07T17:01:46;13.20;;;10.68;;
10440;SDS011;5268;49.346;9.522;2022-12-07T17:06:50;16.10;;;11.30;;
10440;SDS011;5268;49.346;9.522;2022-12-07T17:11:52;14.45;;;10.85;;
10440;SDS011;5268;49.346;9.522;2022-12-07T17:16:54;21.10;;;13.48;;
10440;SDS011;5268;49.346;9.522;2022-12-07T17:21:57;16.17;;;11.45;;
10440;SDS011;5268;49.346;9.522;2022-12-07T17:27:00;20.52;;;13.88;;
10440;SDS011;5268;49.346;9.522;2022-12-07T17:32:02;32.70;;;29.67;;
10440;SDS011;5268;49.346;9.522;2022-12-07T17:37:06;15.48;;;12.10;;
10440;SDS011;5268;49.346;9.522;2022-12-07T17:42:08;18.33;;;12.50;;
10440;SDS011;5268;49.346;9.522;2022-12-07T17:47:28;16.25;;;12.00;;
10440;SDS011;5268;49.346;9.522;2022-12-07T17:52:31;16.10;;;11.75;;
10440;SDS011;5268;49.346;9.522;2022-12-07T17:57:51;14.45;;;10.48;;
10440;SDS011;5268;49.346;9.522;2022-12-07T18:02:56;14.30;;;10.88;;
10440;SDS011;5268;49.346;9.522;2022-12-07T18:07:59;13.15;;;10.38;;
10440;SDS011;5268;49.346;9.522;2022-12-07T18:13:01;16.90;;;11.10;;
10440;SDS011;5268;49.346;9.522;2022-12-07T18:18:21;14.25;;;10.82;;
10440;SDS011;5268;49.346;9.522;2022-12-07T18:23:25;15.73;;;10.98;;
10440;SDS011;5268;49.346;9.522;2022-12-07T18:28:27;13.63;;;10.65;;
10440;SDS011;5268;49.346;9.522;2022-12-07T18:33:30;15.23;;;10.95;;
10440;SDS011;5268;49.346;9.522;2022-12-07T18:38:36;17.08;;;12.23;;
10440;SDS011;5268;49.346;9.522;2022-12-07T18:43:40;17.77;;;11.63;;
10440;SDS011;5268;49.346;9.522;2022-12-07T18:48:44;17.13;;;13.40;;
10440;SDS011;5268;49.346;9.522;2022-12-07T18:53:48;17.17;;;12.25;;
10440;SDS011;5268;49.346;9.522;2022-12-07T18:59:10;17.60;;;12.02;;
10440;SDS011;5268;49.346;9.522;2022-12-07T19:05:00;16.67;;;11.80;;
10440;SDS011;5268;49.346;9.522;2022-12-07T19:10:04;15.02;;;10.90;;
10440;SDS011;5268;49.346;9.522;2022-12-07T19:15:09;15.57;;;11.20;;
10440;SDS011;5268;49.346;9.522;2022-12-07T19:20:13;15.38;;;11.13;;
10440;SDS011;5268;49.346;9.522;2022-12-07T19:25:17;28.38;;;19.10;;
10440;SDS011;5268;49.346;9.522;2022-12-07T19:30:21;18.55;;;14.25;;
10440;SDS011;5268;49.346;9.522;2022-12-07T19:35:25;17.17;;;13.23;;
10440;SDS011;5268;49.346;9.522;2022-12-07T19:40:29;14.98;;;12.07;;
10440;SDS011;5268;49.346;9.522;2022-12-07T19:45:32;18.08;;;13.30;;
10440;SDS011;5268;49.346;9.522;2022-12-07T19:50:35;19.42;;;14.48;;
10440;SDS011;5268;49.346;9.522;2022-12-07T19:55:41;18.55;;;14.00;;
10440;SDS011;5268;49.346;9.522;2022-12-07T20:00:45;17.13;;;12.82;;
10440;SDS011;5268;49.346;9.522;2022-12-07T20:05:50;18.40;;;13.15;;
10440;SDS011;5268;49.346;9.522;2022-12-07T20:10:54;18.00;;;13.15;;
10440;SDS011;5268;49.346;9.522;2022-12-07T20:16:20;19.02;;;13.43;;
10440;SDS011;5268;49.346;9.522;2022-12-07T20:21:24;18.13;;;13.75;;
10440;SDS011;5268;49.346;9.522;2022-12-07T20:26:28;17.67;;;12.70;;
10440;SDS011;5268;49.346;9.522;2022-12-07T20:31:30;26.75;;;17.92;;
10440;SDS011;5268;49.346;9.522;2022-12-07T20:36:33;22.38;;;16.38;;
10440;SDS011;5268;49.346;9.522;2022-12-07T20:41:38;20.67;;;15.00;;
10440;SDS011;5268;49.346;9.522;2022-12-07T20:46:59;19.55;;;13.73;;
10440;SDS011;5268;49.346;9.522;2022-12-07T20:52:02;19.20;;;13.80;;
10440;SDS011;5268;49.346;9.522;2022-12-07T20:57:07;16.50;;;12.63;;
10440;SDS011;5268;49.346;9.522;2022-12-07T21:02:11;20.50;;;13.57;;
10440;SDS011;5268;49.346;9.522;2022-12-07T21:07:16;17.25;;;12.05;;
10440;SDS011;5268;49.346;9.522;2022-12-07T21:12:21;15.20;;;11.63;;
10440;SDS011;5268;49.346;9.522;2022-12-07T21:17:23;16.73;;;11.98;;
10440;SDS011;5268;49.346;9.522;2022-12-07T21:22:26;16.58;;;12.00;;
10440;SDS011;5268;49.346;9.522;2022-12-07T21:27:30;19.48;;;13.40;;
10440;SDS011;5268;49.346;9.522;2022-12-07T21:32:34;17.77;;;13.07;;
10440;SDS011;5268;49.346;9.522;2022-12-07T21:37:38;16.42;;;11.70;;
10440;SDS011;5268;49.346;9.522;2022-12-07T21:42:42;25.60;;;16.90;;
10440;SDS011;5268;49.346;9.522;2022-12-07T21:47:46;18.33;;;13.43;;
10440;SDS011;5268;49.346;9.522;2022-12-07T21:52:50;15.95;;;12.35;;
10440;SDS011;5268;49.346;9.522;2022-12-07T21:57:55;16.60;;;12.07;;
10440;SDS011;5268;49.346;9.522;2022-12-07T22:02:58;17.35;;;11.75;;
10440;SDS011;5268;49.346;9.522;2022-12-07T22:08:00;15.55;;;11.52;;
10440;SDS011;5268;49.346;9.522;2022-12-07T22:13:05;16.75;;;11.52;;
10440;SDS011;5268;49.346;9.522;2022-12-07T22:18:10;16.67;;;11.25;;
10440;SDS011;5268;49.346;9.522;2022-12-07T22:23:13;15.40;;;10.88;;
10440;SDS011;5268;49.346;9.522;2022-12-07T22:28:18;15.43;;;11.35;;
